createdAt,value
2023-03-13T00:00:37.013Z,50.37
2023-03-13T00:02:38.353Z,50.72
2023-03-13T00:04:39.785Z,50.91
2023-03-13T00:06:41.232Z,51.02
2023-03-13T00:08:42.655Z,50.95
2023-03-13T00:10:44.036Z,51.18
2023-03-13T00:12:45.370Z,51.64
2023-03-13T00:14:46.932Z,51.66
2023-03-13T00:16:48.304Z,51.71
2023-03-13T00:18:49.679Z,51.96
2023-03-13T00:20:51.047Z,51.92
2023-03-13T00:22:52.410Z,52.01
2023-03-13T00:24:53.799Z,52.47
2023-03-13T00:26:55.149Z,52.55
2023-03-13T00:28:56.482Z,52.58
2023-03-13T00:30:57.935Z,52.64
2023-03-13T00:32:59.412Z,52.35
2023-03-13T00:35:00.819Z,53.42
2023-03-13T00:37:02.133Z,52.70
2023-03-13T00:39:03.616Z,52.90
2023-03-13T00:41:04.960Z,52.97
2023-03-13T00:43:06.337Z,52.97
2023-03-13T00:45:07.750Z,53.08
2023-03-13T00:47:09.105Z,53.13
2023-03-13T00:49:10.462Z,53.08
2023-03-13T00:51:11.838Z,53.36
2023-03-13T00:53:13.314Z,52.89
2023-03-13T00:55:14.711Z,53.10
2023-03-13T00:57:16.079Z,52.62
2023-03-13T00:59:17.413Z,52.98
2023-03-13T01:01:18.788Z,52.88
2023-03-13T01:03:20.271Z,52.72
2023-03-13T01:05:21.680Z,52.42
2023-03-13T01:07:23.090Z,52.36
2023-03-13T01:09:24.428Z,52.42
2023-03-13T01:11:25.773Z,51.97
2023-03-13T01:13:27.155Z,52.03
2023-03-13T01:15:28.484Z,51.86
2023-03-13T01:17:30.666Z,51.84
2023-03-13T01:19:32.009Z,52.10
2023-03-13T01:21:33.373Z,52.19
2023-03-13T01:23:34.784Z,52.27
2023-03-13T01:25:36.147Z,52.50
2023-03-13T01:27:37.534Z,52.80
2023-03-13T01:29:38.874Z,53.56
2023-03-13T01:31:40.272Z,53.31
2023-03-13T01:33:41.685Z,53.32
2023-03-13T01:35:43.089Z,53.21
2023-03-13T01:37:44.496Z,53.26
2023-03-13T01:39:45.853Z,53.42
2023-03-13T01:41:47.197Z,53.82
2023-03-13T01:43:48.541Z,54.19
2023-03-13T01:45:49.908Z,53.37
2023-03-13T01:47:51.301Z,54.11
2023-03-13T01:49:52.689Z,53.70
2023-03-13T01:51:54.048Z,53.97
2023-03-13T01:53:55.381Z,53.89
2023-03-13T01:55:56.772Z,54.10
2023-03-13T01:57:58.141Z,53.97
2023-03-13T01:59:59.486Z,54.55
2023-03-13T02:02:00.922Z,53.97
2023-03-13T02:04:02.293Z,54.36
2023-03-13T02:06:03.620Z,54.78
2023-03-13T02:08:04.997Z,54.91
2023-03-13T02:10:06.375Z,54.86
2023-03-13T02:12:07.722Z,55.10
2023-03-13T02:14:09.128Z,55.06
2023-03-13T02:16:10.633Z,54.57
2023-03-13T02:18:12.021Z,54.61
2023-03-13T02:20:13.393Z,54.44
2023-03-13T02:22:14.797Z,54.70
2023-03-13T02:24:16.114Z,54.83
2023-03-13T02:26:17.493Z,54.67
2023-03-13T02:28:18.828Z,54.40
2023-03-13T02:30:20.244Z,54.14
2023-03-13T02:32:21.731Z,53.67
2023-03-13T02:34:23.112Z,53.80
2023-03-13T02:36:24.542Z,53.82
2023-03-13T02:38:25.880Z,53.70
2023-03-13T02:40:27.259Z,53.65
2023-03-13T02:42:28.580Z,53.89
2023-03-13T02:44:30.194Z,53.91
2023-03-13T02:46:32.490Z,53.95
2023-03-13T02:48:34.278Z,54.29
2023-03-13T02:50:35.605Z,53.78
2023-03-13T02:52:38.829Z,54.13
2023-03-13T02:54:40.217Z,54.51
2023-03-13T02:56:41.537Z,54.25
2023-03-13T02:58:49.794Z,54.33
2023-03-13T03:00:51.576Z,54.19
2023-03-13T03:02:53.020Z,54.03
2023-03-13T03:04:54.356Z,54.07
2023-03-13T03:06:55.697Z,54.30
2023-03-13T03:08:57.064Z,54.46
2023-03-13T03:10:58.416Z,54.56
2023-03-13T03:12:59.748Z,54.41
2023-03-13T03:15:01.096Z,54.38
2023-03-13T03:17:02.484Z,55.01
2023-03-13T03:19:03.813Z,54.46
2023-03-13T03:21:06.347Z,54.82
2023-03-13T03:23:07.851Z,54.56
2023-03-13T03:25:09.411Z,54.59
2023-03-13T03:27:10.898Z,54.81
2023-03-13T03:29:13.457Z,55.07
2023-03-13T03:31:14.815Z,55.17
2023-03-13T03:33:16.176Z,55.03
2023-03-13T03:35:17.573Z,55.40
2023-03-13T03:37:18.918Z,55.20
2023-03-13T03:39:20.292Z,55.10
2023-03-13T03:41:21.775Z,54.92
2023-03-13T03:43:23.112Z,54.72
2023-03-13T03:45:24.456Z,54.93
2023-03-13T03:47:25.873Z,54.70
2023-03-13T03:49:27.353Z,54.65
2023-03-13T03:51:28.739Z,54.35
2023-03-13T03:53:30.866Z,53.95
2023-03-13T03:55:34.155Z,54.19
2023-03-13T03:57:36.430Z,54.26
2023-03-13T03:59:37.771Z,53.73
2023-03-13T04:01:39.111Z,54.40
2023-03-13T04:03:40.619Z,54.11
2023-03-13T04:05:42.058Z,54.29
2023-03-13T04:07:43.461Z,53.92
2023-03-13T04:09:44.797Z,54.06
2023-03-13T04:11:46.145Z,53.94
2023-03-13T04:13:47.530Z,53.76
2023-03-13T04:15:48.876Z,54.02
2023-03-13T04:17:50.260Z,54.08
2023-03-13T04:19:51.597Z,54.02
2023-03-13T04:21:52.925Z,54.44
2023-03-13T04:23:54.311Z,54.44
2023-03-13T04:25:55.752Z,54.47
2023-03-13T04:27:57.060Z,54.32
2023-03-13T04:29:58.442Z,54.34
2023-03-13T04:31:59.791Z,54.42
2023-03-13T04:34:01.195Z,54.42
2023-03-13T04:36:02.655Z,54.95
2023-03-13T04:38:03.992Z,54.18
2023-03-13T04:40:05.325Z,54.82
2023-03-13T04:42:06.653Z,54.64
2023-03-13T04:44:08.046Z,54.69
2023-03-13T04:46:09.470Z,54.77
2023-03-13T04:48:10.873Z,55.04
2023-03-13T04:50:12.211Z,54.68
2023-03-13T04:52:13.564Z,55.05
2023-03-13T04:54:14.930Z,55.19
2023-03-13T04:56:16.265Z,54.59
2023-03-13T04:58:17.665Z,54.90
2023-03-13T05:00:19.033Z,54.90
2023-03-13T05:02:20.406Z,55.18
2023-03-13T05:04:21.737Z,55.16
2023-03-13T05:06:23.068Z,55.39
2023-03-13T05:08:24.394Z,55.43
2023-03-13T05:10:25.740Z,55.70
2023-03-13T05:12:27.104Z,55.71
2023-03-13T05:14:28.444Z,55.41
2023-03-13T05:16:29.783Z,55.19
2023-03-13T05:18:31.271Z,55.61
2023-03-13T05:20:32.655Z,55.34
2023-03-13T05:22:33.988Z,55.73
2023-03-13T05:24:35.305Z,55.38
2023-03-13T05:26:36.639Z,55.20
2023-03-13T05:28:37.987Z,55.44
2023-03-13T05:30:39.322Z,54.94
2023-03-13T05:32:40.868Z,55.08
2023-03-13T05:34:42.272Z,54.88
2023-03-13T05:36:43.684Z,54.89
2023-03-13T05:38:45.149Z,54.82
2023-03-13T05:40:46.562Z,54.60
2023-03-13T05:42:47.899Z,54.80
2023-03-13T05:44:49.289Z,54.82
2023-03-13T05:46:50.681Z,54.62
2023-03-13T05:48:52.873Z,54.98
2023-03-13T05:50:54.200Z,54.09
2023-03-13T05:52:55.560Z,54.06
2023-03-13T05:54:57.004Z,54.31
2023-03-13T05:56:58.408Z,54.38
2023-03-13T05:58:59.788Z,54.44
2023-03-13T06:01:01.117Z,54.57
2023-03-13T06:03:02.531Z,54.56
2023-03-13T06:05:03.933Z,54.36
2023-03-13T06:07:05.328Z,54.82
2023-03-13T06:09:06.721Z,54.65
2023-03-13T06:11:08.128Z,54.45
2023-03-13T06:13:19.480Z,54.35
2023-03-13T06:15:21.574Z,54.75
2023-03-13T06:17:22.952Z,54.42
2023-03-13T06:19:24.577Z,54.63
2023-03-13T06:21:25.908Z,55.08
2023-03-13T06:23:27.256Z,55.12
2023-03-13T06:25:28.641Z,55.21
2023-03-13T06:27:29.958Z,55.29
2023-03-13T06:29:31.336Z,55.14
2023-03-13T06:31:32.750Z,55.29
2023-03-13T06:33:34.101Z,55.24
2023-03-13T06:35:46.177Z,55.34
2023-03-13T06:37:54.662Z,55.26
2023-03-13T06:39:56.038Z,55.46
2023-03-13T06:41:57.373Z,55.65
2023-03-13T06:43:58.697Z,55.55
2023-03-13T06:46:00.044Z,55.19
2023-03-13T06:48:01.385Z,55.88
2023-03-13T06:50:02.724Z,55.53
2023-03-13T06:52:04.065Z,55.56
2023-03-13T06:54:05.418Z,55.37
2023-03-13T06:56:06.761Z,55.55
2023-03-13T06:58:08.770Z,55.47
2023-03-13T07:00:13.650Z,55.29
2023-03-13T07:02:15.040Z,55.12
2023-03-13T07:04:16.508Z,55.41
2023-03-13T07:06:18.469Z,55.13
2023-03-13T07:08:19.841Z,54.73
2023-03-13T07:10:21.153Z,54.36
2023-03-13T07:12:22.542Z,54.94
2023-03-13T07:14:23.949Z,54.88
2023-03-13T07:16:25.355Z,54.53
2023-03-13T07:18:26.733Z,54.98
2023-03-13T07:20:28.149Z,54.42
2023-03-13T07:22:29.599Z,55.22
2023-03-13T07:24:31.398Z,55.15
2023-03-13T07:26:32.870Z,54.95
2023-03-13T07:28:36.438Z,55.01
2023-03-13T07:30:38.931Z,55.18
2023-03-13T07:32:40.373Z,55.49
2023-03-13T07:34:44.619Z,55.52
2023-03-13T07:36:46.021Z,55.80
2023-03-13T07:38:47.361Z,55.77
2023-03-13T07:40:48.830Z,55.71
2023-03-13T07:42:50.276Z,55.45
2023-03-13T07:44:51.597Z,55.53
2023-03-13T07:46:52.977Z,55.94
2023-03-13T07:48:55.285Z,55.49
2023-03-13T07:50:56.683Z,55.51
2023-03-13T07:52:58.034Z,56.44
2023-03-13T07:54:59.455Z,55.91
2023-03-13T07:57:00.796Z,56.31
2023-03-13T07:59:02.157Z,55.49
2023-03-13T08:01:03.549Z,56.07
2023-03-13T08:03:07.420Z,55.54
2023-03-13T08:05:09.095Z,55.14
2023-03-13T08:07:10.430Z,55.16
2023-03-13T08:09:11.785Z,55.08
2023-03-13T08:11:13.126Z,54.80
2023-03-13T08:13:14.986Z,54.74
2023-03-13T08:15:18.699Z,54.72
2023-03-13T08:17:20.025Z,54.26
2023-03-13T08:19:21.378Z,54.25
2023-03-13T08:21:22.778Z,54.38
2023-03-13T08:23:24.178Z,53.84
2023-03-13T08:25:25.509Z,53.45
2023-03-13T08:27:26.996Z,53.50
2023-03-13T08:29:28.345Z,53.44
2023-03-13T08:31:29.755Z,52.94
2023-03-13T08:33:31.135Z,52.60
2023-03-13T08:35:32.519Z,52.32
2023-03-13T08:37:33.917Z,50.92
2023-03-13T08:39:35.228Z,51.22
2023-03-13T08:41:36.799Z,49.57
2023-03-13T08:43:38.486Z,49.96
2023-03-13T08:45:39.836Z,48.48
2023-03-13T08:47:41.201Z,48.26
2023-03-13T08:49:42.534Z,48.30
2023-03-13T08:51:43.909Z,50.30
2023-03-13T08:53:45.246Z,49.48
2023-03-13T08:55:46.688Z,49.29
2023-03-13T08:57:48.020Z,48.99
2023-03-13T08:59:50.774Z,48.50
2023-03-13T09:01:52.098Z,49.02
2023-03-13T09:03:53.497Z,48.92
2023-03-13T09:05:56.224Z,48.73
2023-03-13T09:07:57.951Z,50.54
2023-03-13T09:09:59.308Z,48.90
2023-03-13T09:12:00.721Z,48.54
2023-03-13T09:14:02.137Z,49.07
2023-03-13T09:16:03.612Z,49.46
2023-03-13T09:18:06.570Z,50.83
2023-03-13T09:20:08.458Z,50.76
2023-03-13T09:22:09.868Z,51.39
2023-03-13T09:24:11.211Z,51.62
2023-03-13T09:26:12.569Z,51.73
2023-03-13T09:28:13.942Z,51.75
2023-03-13T09:30:15.296Z,51.68
2023-03-13T09:32:17.127Z,51.69
2023-03-13T09:34:18.658Z,52.08
2023-03-13T09:36:22.130Z,51.48
2023-03-13T09:38:23.816Z,50.54
2023-03-13T09:40:25.240Z,51.05
2023-03-13T09:42:26.525Z,51.02
2023-03-13T09:44:27.908Z,50.11
2023-03-13T09:46:29.336Z,49.98
2023-03-13T09:48:30.729Z,49.66
2023-03-13T09:50:32.101Z,50.22
2023-03-13T09:52:33.405Z,49.63
2023-03-13T09:54:36.221Z,51.35
2023-03-13T09:56:37.932Z,50.47
2023-03-13T09:58:39.276Z,50.94
2023-03-13T10:00:40.585Z,50.72
2023-03-13T10:02:41.898Z,51.40
2023-03-13T10:04:43.369Z,51.84
2023-03-13T10:06:44.851Z,54.00
2023-03-13T10:08:46.148Z,52.25
2023-03-13T10:10:47.510Z,51.50
2023-03-13T10:12:48.860Z,51.68
2023-03-13T10:14:50.164Z,51.55
2023-03-13T10:16:51.507Z,51.06
2023-03-13T10:18:52.824Z,52.05
2023-03-13T10:20:54.173Z,52.78
2023-03-13T10:22:55.554Z,52.50
2023-03-13T10:24:56.930Z,51.44
2023-03-13T10:27:01.062Z,51.76
2023-03-13T10:29:02.385Z,52.19
2023-03-13T10:31:03.808Z,51.35
2023-03-13T10:33:05.178Z,52.00
2023-03-13T10:35:09.145Z,51.54
2023-03-13T10:37:10.444Z,51.54
2023-03-13T10:39:11.801Z,52.09
2023-03-13T10:41:13.091Z,52.34
2023-03-13T10:43:14.384Z,51.87
2023-03-13T10:45:15.720Z,52.27
2023-03-13T10:47:17.180Z,52.92
2023-03-13T10:49:18.660Z,52.79
2023-03-13T10:51:19.979Z,53.71
2023-03-13T10:53:21.313Z,51.91
2023-03-13T10:55:22.680Z,51.75
2023-03-13T10:57:24.061Z,51.85
2023-03-13T10:59:25.379Z,51.51
2023-03-13T11:01:26.802Z,52.21
2023-03-13T11:03:28.546Z,51.65
2023-03-13T11:05:30.019Z,51.89
2023-03-13T11:07:31.360Z,52.57
2023-03-13T11:09:33.357Z,52.87
2023-03-13T11:11:34.710Z,53.39
2023-03-13T11:13:37.812Z,52.95
2023-03-13T11:15:39.767Z,53.28
2023-03-13T11:17:41.166Z,52.76
2023-03-13T11:19:42.592Z,53.29
2023-03-13T11:21:44.660Z,53.06
2023-03-13T11:23:46.008Z,53.18
2023-03-13T11:25:47.332Z,52.65
2023-03-13T11:27:48.701Z,52.96
2023-03-13T11:29:50.125Z,53.06
2023-03-13T11:31:51.521Z,53.13
2023-03-13T11:33:56.864Z,53.18
2023-03-13T11:35:58.468Z,53.36
2023-03-13T11:37:59.824Z,53.49
2023-03-13T11:40:01.154Z,53.51
2023-03-13T11:42:02.473Z,53.86
2023-03-13T11:44:03.828Z,53.97
2023-03-13T11:46:05.308Z,53.82
2023-03-13T11:48:06.676Z,53.74
2023-03-13T11:50:08.017Z,53.96
2023-03-13T11:52:09.340Z,54.12
2023-03-13T11:54:10.673Z,54.20
2023-03-13T11:56:11.992Z,54.07
2023-03-13T11:58:13.305Z,53.97
2023-03-13T12:00:14.628Z,54.36
2023-03-13T12:02:15.968Z,54.27
2023-03-13T12:04:17.295Z,54.21
2023-03-13T12:06:27.601Z,54.53
2023-03-13T12:08:29.769Z,54.44
2023-03-13T12:10:31.141Z,54.48
2023-03-13T12:12:32.537Z,54.69
2023-03-13T12:14:33.881Z,54.37
2023-03-13T12:16:35.394Z,54.83
2023-03-13T12:18:36.790Z,54.96
2023-03-13T12:20:38.174Z,54.92
2023-03-13T12:22:39.506Z,54.62
2023-03-13T12:24:40.850Z,54.36
2023-03-13T12:26:42.200Z,54.22
2023-03-13T12:28:43.555Z,53.99
2023-03-13T12:30:44.901Z,53.94
2023-03-13T12:32:46.378Z,54.44
2023-03-13T12:34:47.712Z,54.19
2023-03-13T12:36:49.007Z,54.60
2023-03-13T12:38:50.538Z,54.57
2023-03-13T12:40:51.932Z,54.29
2023-03-13T12:42:53.295Z,54.37
2023-03-13T12:44:54.608Z,54.26
2023-03-13T12:46:56.004Z,54.45
2023-03-13T12:48:57.417Z,54.24
2023-03-13T12:50:58.708Z,54.24
2023-03-13T12:53:00.030Z,54.21
2023-03-13T12:55:02.213Z,54.33
2023-03-13T12:57:03.534Z,54.35
2023-03-13T12:59:04.880Z,54.32
2023-03-13T13:01:06.240Z,54.15
2023-03-13T13:03:07.541Z,54.23
2023-03-13T13:05:08.857Z,54.37
2023-03-13T13:07:10.305Z,54.09
2023-03-13T13:09:11.618Z,54.03
2023-03-13T13:11:12.919Z,53.95
2023-03-13T13:13:14.280Z,53.81
2023-03-13T13:15:15.624Z,53.32
2023-03-13T13:17:17.319Z,53.26
2023-03-13T13:19:18.656Z,52.96
2023-03-13T13:21:19.978Z,53.21
2023-03-13T13:23:21.279Z,52.45
2023-03-13T13:25:22.666Z,52.14
2023-03-13T13:27:23.997Z,52.53
2023-03-13T13:29:25.713Z,52.10
2023-03-13T13:31:27.150Z,51.97
2023-03-13T13:33:30.677Z,52.25
2023-03-13T13:35:32.164Z,51.62
2023-03-13T13:37:33.631Z,51.75
2023-03-13T13:39:35.046Z,51.81
2023-03-13T13:41:37.238Z,51.87
2023-03-13T13:43:38.640Z,51.55
2023-03-13T13:45:39.976Z,51.92
2023-03-13T13:47:41.276Z,51.64
2023-03-13T13:49:42.573Z,51.67
2023-03-13T13:51:43.976Z,51.81
2023-03-13T13:53:45.333Z,51.44
2023-03-13T13:55:46.846Z,51.77
2023-03-13T13:57:49.387Z,51.53
2023-03-13T13:59:50.725Z,51.30
2023-03-13T14:01:52.123Z,51.30
2023-03-13T14:03:53.809Z,51.46
2023-03-13T14:05:55.185Z,51.13
2023-03-13T14:07:56.558Z,51.28
2023-03-13T14:09:57.865Z,51.64
2023-03-13T14:11:59.211Z,51.18
2023-03-13T14:14:00.556Z,51.60
2023-03-13T14:16:01.866Z,51.21
2023-03-13T14:18:03.204Z,51.30
2023-03-13T14:20:06.503Z,51.53
2023-03-13T14:22:07.873Z,51.60
2023-03-13T14:24:09.226Z,51.46
2023-03-13T14:26:10.750Z,51.69
2023-03-13T14:28:12.124Z,51.70
2023-03-13T14:30:13.428Z,51.76
2023-03-13T14:32:14.759Z,51.79
2023-03-13T14:34:16.072Z,52.06
2023-03-13T14:36:17.389Z,51.99
2023-03-13T14:38:18.861Z,52.34
2023-03-13T14:40:20.297Z,52.10
2023-03-13T14:42:21.635Z,52.46
2023-03-13T14:44:22.993Z,52.43
2023-03-13T14:46:24.363Z,52.39
2023-03-13T14:48:25.769Z,52.44
2023-03-13T14:50:27.140Z,52.64
2023-03-13T14:52:28.519Z,52.34
2023-03-13T14:54:29.877Z,52.47
2023-03-13T14:56:31.213Z,52.39
2023-03-13T14:58:32.621Z,52.38
2023-03-13T15:00:34.151Z,52.23
2023-03-13T15:02:36.085Z,52.26
2023-03-13T15:04:37.445Z,51.87
2023-03-13T15:06:38.847Z,51.91
2023-03-13T15:08:40.190Z,51.72
2023-03-13T15:10:41.577Z,51.88
2023-03-13T15:12:42.877Z,51.63
2023-03-13T15:14:44.180Z,51.67
2023-03-13T15:16:45.557Z,51.88
2023-03-13T15:18:47.239Z,51.29
2023-03-13T15:20:51.388Z,51.30
2023-03-13T15:22:52.681Z,51.64
2023-03-13T15:25:05.654Z,51.25
2023-03-13T15:27:07.640Z,51.65
2023-03-13T15:29:09.050Z,51.43
2023-03-13T15:31:10.401Z,51.44
2023-03-13T15:33:11.778Z,51.71
2023-03-13T15:35:13.210Z,51.38
2023-03-13T15:37:14.932Z,51.28
2023-03-13T15:39:16.351Z,51.14
2023-03-13T15:41:17.648Z,51.58
2023-03-13T15:43:18.939Z,51.65
2023-03-13T15:45:20.357Z,51.56
2023-03-13T15:47:21.783Z,51.49
2023-03-13T15:49:23.104Z,51.20
2023-03-13T15:51:24.450Z,51.48
2023-03-13T15:53:25.805Z,51.37
2023-03-13T15:55:27.182Z,51.38
2023-03-13T15:57:28.486Z,51.29
2023-03-13T15:59:29.980Z,51.52
2023-03-13T16:01:31.342Z,51.54
2023-03-13T16:03:32.676Z,51.56
2023-03-13T16:05:34.009Z,51.46
2023-03-13T16:07:35.636Z,51.12
2023-03-13T16:09:36.950Z,51.42
2023-03-13T16:11:38.244Z,51.31
2023-03-13T16:13:39.575Z,51.53
2023-03-13T16:15:40.928Z,51.54
2023-03-13T16:17:45.028Z,51.28
2023-03-13T16:19:49.243Z,51.04
2023-03-13T16:21:52.676Z,51.47
2023-03-13T16:24:00.058Z,51.15
2023-03-13T16:26:04.961Z,51.63
2023-03-13T16:28:07.710Z,51.52
2023-03-13T16:30:09.117Z,51.42
2023-03-13T16:32:10.417Z,51.47
2023-03-13T16:34:12.070Z,51.43
2023-03-13T16:36:13.360Z,51.46
2023-03-13T16:38:17.751Z,51.81
2023-03-13T16:40:19.425Z,51.66
2023-03-13T16:42:20.800Z,51.69
2023-03-13T16:44:22.188Z,51.88
2023-03-13T16:46:23.982Z,51.76
2023-03-13T16:48:25.351Z,51.81
2023-03-13T16:50:26.752Z,51.57
2023-03-13T16:52:28.061Z,51.45
2023-03-13T16:54:29.353Z,51.61
2023-03-13T16:56:30.750Z,51.71
2023-03-13T16:58:32.086Z,51.57
2023-03-13T17:00:33.468Z,51.59
2023-03-13T17:02:37.533Z,51.73
2023-03-13T17:04:39.045Z,51.68
2023-03-13T17:06:41.428Z,51.43
2023-03-13T17:08:44.008Z,51.61
2023-03-13T17:10:45.363Z,51.67
2023-03-13T17:12:46.703Z,51.37
2023-03-13T17:14:48.107Z,51.57
2023-03-13T17:16:49.409Z,51.42
2023-03-13T17:18:51.611Z,51.56
2023-03-13T17:20:52.951Z,51.63
2023-03-13T17:22:56.218Z,51.74
2023-03-13T17:24:57.572Z,51.63
2023-03-13T17:26:58.937Z,51.93
2023-03-13T17:29:03.113Z,51.83
2023-03-13T17:31:05.839Z,52.00
2023-03-13T17:33:07.199Z,51.99
2023-03-13T17:35:08.566Z,52.25
2023-03-13T17:37:09.958Z,51.93
2023-03-13T17:39:11.377Z,51.78
2023-03-13T17:41:13.028Z,51.87
2023-03-13T17:43:14.509Z,51.77
2023-03-13T17:45:15.829Z,51.63
2023-03-13T17:47:17.158Z,51.27
2023-03-13T17:49:20.503Z,51.61
2023-03-13T17:51:21.916Z,51.45
2023-03-13T17:53:23.455Z,51.36
2023-03-13T17:55:25.288Z,51.07
2023-03-13T17:57:29.512Z,51.09
2023-03-13T17:59:30.915Z,51.31
2023-03-13T18:01:32.380Z,51.04
2023-03-13T18:03:33.781Z,50.90
2023-03-13T18:05:35.100Z,50.89
2023-03-13T18:07:36.475Z,50.77
2023-03-13T18:09:40.533Z,51.04
2023-03-13T18:11:42.064Z,50.60
2023-03-13T18:13:43.447Z,50.88
2023-03-13T18:15:44.866Z,50.63
2023-03-13T18:17:46.245Z,50.89
2023-03-13T18:19:47.714Z,50.65
2023-03-13T18:21:49.057Z,51.06
2023-03-13T18:23:50.437Z,50.66
2023-03-13T18:25:51.776Z,50.67
2023-03-13T18:27:53.126Z,50.65
2023-03-13T18:29:54.459Z,51.01
2023-03-13T18:31:55.930Z,50.93
2023-03-13T18:33:57.395Z,51.03
2023-03-13T18:36:02.197Z,51.21
2023-03-13T18:38:08.411Z,50.94
2023-03-13T18:40:09.733Z,50.86
2023-03-13T18:42:11.131Z,51.08
2023-03-13T18:44:15.629Z,51.08
2023-03-13T18:46:17.129Z,50.68
2023-03-13T18:48:18.474Z,51.03
2023-03-13T18:50:20.351Z,50.88
2023-03-13T18:52:21.705Z,50.64
2023-03-13T18:54:23.010Z,50.60
2023-03-13T18:56:24.399Z,50.84
2023-03-13T18:58:26.377Z,51.03
2023-03-13T19:00:27.794Z,50.76
2023-03-13T19:02:29.215Z,50.76
2023-03-13T19:04:30.598Z,50.91
2023-03-13T19:06:31.942Z,50.46
2023-03-13T19:08:35.933Z,50.92
2023-03-13T19:10:38.616Z,50.56
2023-03-13T19:12:39.954Z,50.77
2023-03-13T19:14:41.300Z,50.59
2023-03-13T19:16:42.648Z,51.04
2023-03-13T19:18:44.105Z,50.73
2023-03-13T19:20:48.084Z,50.65
2023-03-13T19:22:49.381Z,50.52
2023-03-13T19:24:50.722Z,50.65
2023-03-13T19:26:58.360Z,50.49
2023-03-13T19:28:59.756Z,50.75
2023-03-13T19:31:01.119Z,50.76
2023-03-13T19:33:02.449Z,50.64
2023-03-13T19:35:03.829Z,50.66
2023-03-13T19:37:05.187Z,50.86
2023-03-13T19:39:06.497Z,50.76
2023-03-13T19:41:07.798Z,51.03
2023-03-13T19:43:09.109Z,50.44
2023-03-13T19:45:10.460Z,50.89
2023-03-13T19:47:11.842Z,51.07
2023-03-13T19:49:13.237Z,50.93
2023-03-13T19:51:14.584Z,50.49
2023-03-13T19:53:15.973Z,50.88
2023-03-13T19:55:17.350Z,50.99
2023-03-13T19:57:18.788Z,50.81
2023-03-13T19:59:23.577Z,50.65
2023-03-13T20:01:27.931Z,50.72
2023-03-13T20:03:29.308Z,50.82
2023-03-13T20:05:30.871Z,50.61
2023-03-13T20:07:32.594Z,50.71
2023-03-13T20:09:35.561Z,50.69
2023-03-13T20:11:37.957Z,50.79
2023-03-13T20:13:41.947Z,50.71
2023-03-13T20:15:46.295Z,50.62
2023-03-13T20:17:53.616Z,50.75
2023-03-13T20:19:55.054Z,50.57
2023-03-13T20:21:59.644Z,50.80
2023-03-13T20:24:01.011Z,50.32
2023-03-13T20:26:02.530Z,50.77
2023-03-13T20:28:03.882Z,50.89
2023-03-13T20:30:06.307Z,50.48
2023-03-13T20:32:07.992Z,50.68
2023-03-13T20:34:09.431Z,50.18
2023-03-13T20:36:10.770Z,50.59
2023-03-13T20:38:12.192Z,50.43
2023-03-13T20:40:13.509Z,50.28
2023-03-13T20:42:16.490Z,50.25
2023-03-13T20:44:17.862Z,50.44
2023-03-13T20:46:19.261Z,50.04
2023-03-13T20:48:20.770Z,50.48
2023-03-13T20:50:22.193Z,50.23
2023-03-13T20:52:23.524Z,50.38
2023-03-13T20:54:24.871Z,50.25
2023-03-13T20:56:26.159Z,50.16
2023-03-13T20:58:27.477Z,50.23
2023-03-13T21:00:28.814Z,50.21
2023-03-13T21:02:30.182Z,50.44
2023-03-13T21:04:31.545Z,50.37
2023-03-13T21:06:33.115Z,50.31
2023-03-13T21:08:35.644Z,50.23
2023-03-13T21:10:38.250Z,50.16
2023-03-13T21:12:39.596Z,50.05
2023-03-13T21:14:41.305Z,50.18
2023-03-13T21:16:42.643Z,50.29
2023-03-13T21:18:43.973Z,50.31
2023-03-13T21:20:45.289Z,50.34
2023-03-13T21:22:46.689Z,50.19
2023-03-13T21:24:48.628Z,50.21
2023-03-13T21:26:49.963Z,49.89
2023-03-13T21:28:54.438Z,49.97
2023-03-13T21:30:58.867Z,50.03
2023-03-13T21:33:00.306Z,50.34
2023-03-13T21:35:01.653Z,50.29
2023-03-13T21:37:02.986Z,50.28
2023-03-13T21:39:05.170Z,50.30
2023-03-13T21:41:07.936Z,50.39
2023-03-13T21:43:09.258Z,50.41
2023-03-13T21:45:10.623Z,50.88
2023-03-13T21:47:12.019Z,50.74
2023-03-13T21:49:13.647Z,50.78
2023-03-13T21:51:15.140Z,50.68
2023-03-13T21:53:16.439Z,50.78
2023-03-13T21:55:17.755Z,50.95
2023-03-13T21:57:19.138Z,50.69
2023-03-13T21:59:21.824Z,50.90
2023-03-13T22:01:23.121Z,51.01
2023-03-13T22:03:24.552Z,50.80
2023-03-13T22:05:25.892Z,50.74
2023-03-13T22:07:27.380Z,51.06
2023-03-13T22:09:31.454Z,50.96
2023-03-13T22:11:32.766Z,50.80
2023-03-13T22:13:34.164Z,50.76
2023-03-13T22:15:35.496Z,50.78
2023-03-13T22:17:36.840Z,50.67
2023-03-13T22:19:40.860Z,50.70
2023-03-13T22:21:43.890Z,52.72
2023-03-13T22:23:45.230Z,54.46
2023-03-13T22:25:48.131Z,52.88
2023-03-13T22:27:49.563Z,53.75
2023-03-13T22:29:50.929Z,53.17
2023-03-13T22:31:52.268Z,52.85
2023-03-13T22:33:53.601Z,53.58
2023-03-13T22:35:54.946Z,53.95
2023-03-13T22:37:56.278Z,53.07
2023-03-13T22:39:57.617Z,50.05
2023-03-13T22:41:58.932Z,49.75
2023-03-13T22:44:00.339Z,51.03
2023-03-13T22:46:04.416Z,50.20
2023-03-13T22:48:06.697Z,49.97
2023-03-13T22:50:09.615Z,49.79
2023-03-13T22:52:10.928Z,49.95
2023-03-13T22:54:12.261Z,49.96
2023-03-13T22:56:13.733Z,49.26
2023-03-13T22:58:15.033Z,49.91
2023-03-13T23:00:16.336Z,49.98
2023-03-13T23:02:17.654Z,50.37
2023-03-13T23:04:18.964Z,50.67
2023-03-13T23:06:20.293Z,50.48
2023-03-13T23:08:21.623Z,50.96
2023-03-13T23:10:23.032Z,50.06
2023-03-13T23:12:24.479Z,50.08
2023-03-13T23:14:29.077Z,51.31
2023-03-13T23:16:33.741Z,51.09
2023-03-13T23:18:35.152Z,51.51
2023-03-13T23:20:36.485Z,52.38
2023-03-13T23:22:37.793Z,51.55
2023-03-13T23:24:39.139Z,51.78
2023-03-13T23:26:40.590Z,51.13
2023-03-13T23:28:41.907Z,51.47
2023-03-13T23:30:44.574Z,51.89
2023-03-13T23:32:46.029Z,51.42
2023-03-13T23:34:47.388Z,51.55
2023-03-13T23:36:49.024Z,51.69
2023-03-13T23:38:50.449Z,51.76
2023-03-13T23:40:53.117Z,52.20
2023-03-13T23:42:54.432Z,51.87
2023-03-13T23:44:55.753Z,51.38
2023-03-13T23:46:57.064Z,51.68
2023-03-13T23:48:58.554Z,51.58
2023-03-13T23:50:59.900Z,51.70
2023-03-13T23:53:02.216Z,50.01
2023-03-13T23:55:04.397Z,50.91
2023-03-13T23:57:05.723Z,50.03
2023-03-13T23:59:07.037Z,50.40
